Time;durP1;ratioP1;P1;durP2;ratioP2;P2;SDS_P1;SDS_P2;PMS_P1;PMS_P2;Temp;Humidity;BMP_temperature;BMP_pressure;BME280_temperature;BME280_humidity;BME280_pressure;Samples;Min_cycle;Max_cycle;Signal;HPM_P1;HPM_P2
2020/12/08 00:00:22;;;;;;;25.23;16.23;;;6.90;99.90;;;;;;6179511;28;20490;-62
2020/12/08 00:03:25;;;;;;;27.03;18.13;;;6.90;99.90;;;;;;6179746;28;20480;-63
2020/12/08 00:06:27;;;;;;;27.57;18.67;;;6.90;99.90;;;;;;6179809;28;20481;-63
2020/12/08 00:09:31;;;;;;;29.43;17.07;;;6.90;99.90;;;;;;6180089;28;20516;-61
2020/12/08 00:12:33;;;;;;;28.60;18.90;;;6.80;99.90;;;;;;6179864;28;20470;-62
2020/12/08 00:15:36;;;;;;;24.17;17.37;;;6.80;99.90;;;;;;6180940;28;20466;-62
2020/12/08 00:18:38;;;;;;;26.30;18.17;;;6.80;99.90;;;;;;6182850;28;20470;-62
2020/12/08 00:21:43;;;;;;;25.30;17.10;;;6.90;99.90;;;;;;6190653;28;20474;-62
2020/12/08 00:24:46;;;;;;;24.03;15.83;;;6.80;99.90;;;;;;6179400;28;20493;-63
2020/12/08 00:27:48;;;;;;;22.60;14.63;;;6.80;99.90;;;;;;6179309;28;20969;-62
2020/12/08 00:30:51;;;;;;;26.83;19.20;;;6.80;99.90;;;;;;6179320;28;20484;-63
2020/12/08 00:33:54;;;;;;;25.53;16.00;;;6.80;99.90;;;;;;6179169;28;20949;-63
2020/12/08 00:36:56;;;;;;;20.63;14.57;;;6.90;99.90;;;;;;6179207;28;20489;-62
2020/12/08 00:39:59;;;;;;;24.10;14.37;;;6.80;99.90;;;;;;6179018;28;20816;-62
2020/12/08 00:43:02;;;;;;;19.40;14.87;;;6.80;99.90;;;;;;6178815;28;20477;-63
2020/12/08 00:46:04;;;;;;;24.57;16.03;;;6.80;99.90;;;;;;6178988;28;20981;-62
2020/12/08 00:49:07;;;;;;;23.47;15.27;;;6.80;99.90;;;;;;6178696;28;20930;-62
2020/12/08 00:52:09;;;;;;;23.80;15.60;;;6.80;99.90;;;;;;6178812;28;20489;-63
2020/12/08 00:55:13;;;;;;;23.17;14.80;;;6.70;99.90;;;;;;6178293;28;20469;-64
2020/12/08 00:58:18;;;;;;;22.33;14.97;;;6.70;99.90;;;;;;6178877;28;20489;-61
2020/12/08 01:01:20;;;;;;;24.33;15.40;;;6.60;99.90;;;;;;6173208;28;20478;-61
2020/12/08 01:04:23;;;;;;;25.30;14.10;;;6.60;99.90;;;;;;6154239;29;20514;-64
2020/12/08 01:07:25;;;;;;;23.90;15.20;;;6.60;99.90;;;;;;6178388;28;20477;-62
2020/12/08 01:10:28;;;;;;;24.90;15.33;;;6.60;99.90;;;;;;6178236;28;20478;-63
2020/12/08 01:13:34;;;;;;;24.43;17.23;;;6.50;99.90;;;;;;6178088;28;20992;-62
2020/12/08 01:16:36;;;;;;;23.87;15.17;;;6.50;99.90;;;;;;6178119;28;20487;-63
2020/12/08 01:19:40;;;;;;;27.90;15.40;;;6.40;99.90;;;;;;6177902;28;20473;-63
2020/12/08 01:22:42;;;;;;;24.07;15.20;;;6.50;99.90;;;;;;6177792;28;21000;-62
2020/12/08 01:25:45;;;;;;;21.23;14.70;;;6.40;99.90;;;;;;6177773;28;20466;-63
2020/12/08 01:28:49;;;;;;;24.17;16.17;;;6.40;99.90;;;;;;6177643;28;20969;-65
2020/12/08 01:31:51;;;;;;;19.23;14.83;;;6.50;99.90;;;;;;6177745;28;20488;-64
2020/12/08 01:34:53;;;;;;;31.03;17.10;;;6.50;99.90;;;;;;6177646;28;20474;-62
2020/12/08 01:37:56;;;;;;;20.43;14.60;;;6.40;99.90;;;;;;6177479;28;20482;-62
2020/12/08 01:40:59;;;;;;;22.37;15.83;;;6.50;99.90;;;;;;6177317;28;20486;-63
2020/12/08 01:44:01;;;;;;;23.67;16.73;;;6.50;99.90;;;;;;6177359;28;20481;-64
2020/12/08 01:47:04;;;;;;;20.73;14.87;;;6.50;99.90;;;;;;6177789;28;20484;-64
2020/12/08 01:50:06;;;;;;;18.83;13.60;;;6.60;99.90;;;;;;6183003;28;20469;-62
2020/12/08 01:53:10;;;;;;;24.00;16.03;;;6.60;99.90;;;;;;6184885;28;20473;-62
2020/12/08 01:56:14;;;;;;;22.97;15.17;;;6.60;99.90;;;;;;6189415;28;20479;-62
2020/12/08 01:59:16;;;;;;;21.40;13.73;;;6.60;99.90;;;;;;6187720;28;20820;-62
2020/12/08 02:02:18;;;;;;;22.80;14.97;;;6.60;99.90;;;;;;6185676;28;20484;-62
2020/12/08 02:05:20;;;;;;;19.60;13.80;;;6.60;99.90;;;;;;6187477;28;20453;-62
2020/12/08 02:08:30;;;;;;;20.60;14.80;;;6.60;99.90;;;;;;6186020;28;20472;-62
2020/12/08 02:11:33;;;;;;;23.67;15.53;;;6.60;99.90;;;;;;6190508;28;20462;-62
2020/12/08 02:14:35;;;;;;;24.30;15.30;;;6.60;99.90;;;;;;6187777;28;20445;-62
2020/12/08 02:17:37;;;;;;;28.47;16.63;;;6.60;99.90;;;;;;6192250;28;20445;-62
2020/12/08 02:20:41;;;;;;;26.27;18.70;;;6.60;99.90;;;;;;6182705;28;20457;-62
2020/12/08 02:23:50;;;;;;;31.53;19.40;;;6.60;99.90;;;;;;6185552;28;20482;-62
2020/12/08 02:26:52;;;;;;;34.90;19.50;;;6.60;99.90;;;;;;6187003;28;20529;-62
2020/12/08 02:29:54;;;;;;;25.00;18.47;;;6.50;99.90;;;;;;6183284;28;20503;-63
2020/12/08 02:32:57;;;;;;;26.43;17.70;;;6.50;99.90;;;;;;6187542;28;20467;-62
2020/12/08 02:36:03;;;;;;;36.00;20.70;;;6.40;99.90;;;;;;6186379;28;20527;-62
2020/12/08 02:39:05;;;;;;;34.23;20.43;;;6.40;99.90;;;;;;6187638;28;20477;-62
2020/12/08 02:42:07;;;;;;;31.63;19.87;;;6.40;99.90;;;;;;6189623;28;20480;-62
2020/12/08 02:45:10;;;;;;;33.03;18.13;;;6.40;99.90;;;;;;6199186;28;20488;-62
2020/12/08 02:48:12;;;;;;;28.70;17.70;;;6.20;99.90;;;;;;6200995;28;20483;-62
2020/12/08 02:51:32;;;;;;;27.23;17.63;;;6.20;99.90;;;;;;6200714;28;20809;-62
2020/12/08 02:54:34;;;;;;;30.77;18.20;;;6.10;99.90;;;;;;6201018;28;20473;-62
2020/12/08 02:57:40;;;;;;;27.13;17.57;;;6.00;99.90;;;;;;6201403;28;20516;-62
2020/12/08 03:00:42;;;;;;;29.30;19.47;;;6.00;99.90;;;;;;6200621;28;20481;-62
2020/12/08 03:03:44;;;;;;;29.93;18.33;;;5.90;99.90;;;;;;6200645;28;20991;-62
2020/12/08 03:06:47;;;;;;;31.40;19.20;;;6.00;99.90;;;;;;6200909;28;20469;-62
2020/12/08 03:09:50;;;;;;;30.87;18.43;;;6.00;99.90;;;;;;6196517;28;20477;-62
2020/12/08 03:12:52;;;;;;;28.10;17.30;;;6.10;99.90;;;;;;6201063;28;20465;-63
2020/12/08 03:15:54;;;;;;;28.53;16.20;;;6.10;99.90;;;;;;6201288;28;20473;-62
2020/12/08 03:18:57;;;;;;;35.80;18.53;;;6.10;99.90;;;;;;6203648;28;20480;-62
2020/12/08 03:22:00;;;;;;;34.63;20.70;;;6.20;99.90;;;;;;6204989;28;20495;-62
2020/12/08 03:25:02;;;;;;;35.77;20.57;;;6.20;99.90;;;;;;6205107;28;20558;-62
2020/12/08 03:28:05;;;;;;;37.07;19.60;;;6.20;99.90;;;;;;6205121;28;20575;-62
2020/12/08 03:31:07;;;;;;;31.13;20.60;;;6.10;99.90;;;;;;6204831;28;20481;-62
2020/12/08 03:34:09;;;;;;;35.93;19.53;;;6.20;99.90;;;;;;6204798;28;20825;-62
2020/12/08 03:37:12;;;;;;;33.43;18.50;;;6.20;99.90;;;;;;6204803;28;20487;-62
2020/12/08 03:40:14;;;;;;;32.73;19.83;;;6.30;99.90;;;;;;6204839;28;20492;-62
2020/12/08 03:43:17;;;;;;;36.20;20.20;;;6.30;99.90;;;;;;6204213;28;20485;-62
2020/12/08 03:46:20;;;;;;;37.07;20.00;;;6.20;99.90;;;;;;6204622;28;20484;-62
2020/12/08 03:49:26;;;;;;;35.27;19.13;;;6.10;99.90;;;;;;6204360;28;20988;-62
2020/12/08 03:52:31;;;;;;;32.90;17.87;;;6.10;99.90;;;;;;6204532;28;20477;-62
2020/12/08 03:55:34;;;;;;;27.30;16.00;;;6.00;99.90;;;;;;6204563;28;20469;-62
2020/12/08 03:58:36;;;;;;;31.57;18.27;;;6.00;99.90;;;;;;6204734;28;20980;-62
2020/12/08 04:01:38;;;;;;;31.47;17.83;;;6.00;99.90;;;;;;6204226;28;20472;-62
2020/12/08 04:04:40;;;;;;;28.77;17.63;;;6.10;99.90;;;;;;6204244;28;20496;-63
2020/12/08 04:07:43;;;;;;;29.30;18.50;;;6.00;99.90;;;;;;6204301;28;20576;-62
2020/12/08 04:10:46;;;;;;;31.43;16.77;;;5.90;99.90;;;;;;6204436;28;20477;-62
2020/12/08 04:13:49;;;;;;;22.67;14.57;;;5.90;99.90;;;;;;6204659;28;20471;-62
2020/12/08 04:16:52;;;;;;;20.67;15.10;;;6.00;99.90;;;;;;6195036;28;20514;-62
2020/12/08 04:19:54;;;;;;;25.97;14.30;;;6.00;99.90;;;;;;6203800;28;20972;-60
2020/12/08 04:22:57;;;;;;;19.47;14.37;;;6.00;99.90;;;;;;6203595;28;20488;-59
2020/12/08 04:26:00;;;;;;;19.53;13.27;;;6.00;99.90;;;;;;6203929;28;20491;-59
2020/12/08 04:29:02;;;;;;;20.43;13.90;;;6.00;99.90;;;;;;6202797;28;20956;-59
2020/12/08 04:32:05;;;;;;;18.80;12.50;;;6.00;99.90;;;;;;6203500;28;20488;-59
2020/12/08 04:35:07;;;;;;;23.43;13.77;;;6.00;99.90;;;;;;6203418;28;20480;-60
2020/12/08 04:38:10;;;;;;;17.80;14.70;;;6.00;99.90;;;;;;6203355;28;20488;-59
2020/12/08 04:41:18;;;;;;;18.67;11.83;;;6.00;99.90;;;;;;6203275;28;20489;-59
2020/12/08 04:44:21;;;;;;;18.80;13.23;;;6.00;99.90;;;;;;6203198;28;20973;-59
2020/12/08 04:47:25;;;;;;;17.13;11.80;;;5.90;99.90;;;;;;6203131;28;20607;-59
2020/12/08 04:50:27;;;;;;;18.53;13.07;;;5.90;99.90;;;;;;6202838;28;20476;-59
2020/12/08 04:53:30;;;;;;;20.00;13.50;;;5.80;99.90;;;;;;6202914;28;20441;-59
2020/12/08 04:56:35;;;;;;;19.87;13.20;;;5.90;99.90;;;;;;6203250;28;20441;-59
2020/12/08 04:59:38;;;;;;;19.63;14.03;;;5.90;99.90;;;;;;6202747;28;20464;-60
2020/12/08 05:02:47;;;;;;;18.10;12.87;;;5.90;99.90;;;;;;6203090;28;20445;-60
2020/12/08 05:05:49;;;;;;;17.53;13.17;;;5.80;99.90;;;;;;6202650;28;20492;-60
2020/12/08 05:09:03;;;;;;;19.53;13.07;;;5.90;99.90;;;;;;6202953;28;20472;-60
2020/12/08 05:12:05;;;;;;;20.27;12.63;;;5.90;99.90;;;;;;6202592;28;20484;-59
2020/12/08 05:15:15;;;;;;;24.13;15.10;;;5.90;99.90;;;;;;6203084;28;20493;-59
2020/12/08 05:18:17;;;;;;;22.53;14.90;;;5.90;99.90;;;;;;6198353;28;20473;-59
2020/12/08 05:21:19;;;;;;;22.80;15.90;;;5.90;99.90;;;;;;6202468;28;20986;-59
2020/12/08 05:24:24;;;;;;;20.17;12.97;;;5.90;99.90;;;;;;6202471;28;20803;-59
2020/12/08 05:27:26;;;;;;;19.73;12.30;;;5.90;99.90;;;;;;6202536;28;20476;-59
2020/12/08 05:30:29;;;;;;;19.83;13.50;;;5.90;99.90;;;;;;6202266;28;20476;-60
2020/12/08 05:33:31;;;;;;;22.47;13.43;;;5.80;99.90;;;;;;6202304;28;20468;-59
2020/12/08 05:36:39;;;;;;;22.43;13.30;;;5.70;99.90;;;;;;6202318;28;20802;-59
2020/12/08 05:39:43;;;;;;;24.77;13.80;;;5.70;99.90;;;;;;6202742;28;20484;-59
2020/12/08 05:42:47;;;;;;;26.07;13.80;;;5.70;99.90;;;;;;6201671;28;20480;-59
2020/12/08 05:45:49;;;;;;;21.43;12.77;;;5.70;99.90;;;;;;6201982;28;20468;-59
2020/12/08 05:48:59;;;;;;;22.37;14.77;;;5.70;99.90;;;;;;6201762;28;20492;-59
2020/12/08 05:52:02;;;;;;;24.03;14.83;;;5.70;99.90;;;;;;6202134;28;20477;-59
2020/12/08 05:55:12;;;;;;;22.13;14.00;;;5.70;99.90;;;;;;6201878;28;20563;-59
2020/12/08 05:58:14;;;;;;;27.53;15.57;;;5.70;99.90;;;;;;6201794;28;20472;-59
2020/12/08 06:01:16;;;;;;;26.23;15.37;;;5.80;99.90;;;;;;6201548;28;20480;-59
2020/12/08 06:04:19;;;;;;;25.67;13.57;;;5.80;99.90;;;;;;6201427;28;20516;-59
2020/12/08 06:07:29;;;;;;;23.80;14.33;;;5.90;99.90;;;;;;6201626;28;20818;-59
2020/12/08 06:10:43;;;;;;;22.37;14.00;;;5.90;99.90;;;;;;6201594;28;20480;-60
2020/12/08 06:13:47;;;;;;;26.90;14.97;;;6.00;99.90;;;;;;6201622;28;20485;-60
2020/12/08 06:16:59;;;;;;;25.13;13.67;;;6.10;99.90;;;;;;6201523;28;20488;-60
2020/12/08 06:20:01;;;;;;;27.17;15.53;;;6.10;99.90;;;;;;6201137;28;20966;-60
2020/12/08 06:23:05;;;;;;;21.67;14.70;;;6.10;99.90;;;;;;6192170;28;21083;-60
2020/12/08 06:26:08;;;;;;;24.33;13.97;;;6.10;99.90;;;;;;6202081;28;20499;-60
2020/12/08 06:29:10;;;;;;;23.77;14.10;;;6.00;99.90;;;;;;6201316;28;20487;-60
2020/12/08 06:32:23;;;;;;;24.63;14.37;;;6.00;99.90;;;;;;6201250;28;20503;-60
2020/12/08 06:35:32;;;;;;;28.87;16.03;;;6.00;99.90;;;;;;6200882;28;20807;-60
2020/12/08 06:38:56;;;;;;;31.27;15.40;;;6.00;99.90;;;;;;6201369;28;20469;-60
2020/12/08 06:41:59;;;;;;;24.80;14.43;;;6.00;99.90;;;;;;6200978;28;20469;-59
2020/12/08 06:45:09;;;;;;;30.50;15.50;;;6.00;99.90;;;;;;6200986;28;20983;-59
2020/12/08 06:48:16;;;;;;;29.37;15.33;;;6.00;99.90;;;;;;6200817;28;20801;-60
2020/12/08 06:51:18;;;;;;;24.30;14.17;;;6.00;99.90;;;;;;6200775;28;20980;-60
2020/12/08 06:54:20;;;;;;;24.50;15.60;;;6.00;99.90;;;;;;6204990;28;20478;-60
2020/12/08 06:57:24;;;;;;;21.53;13.63;;;5.90;99.90;;;;;;6205864;28;20472;-59
2020/12/08 07:00:26;;;;;;;23.10;14.57;;;5.90;99.90;;;;;;6205468;28;20531;-59
2020/12/08 07:03:28;;;;;;;23.63;14.10;;;5.90;99.90;;;;;;6205713;28;20496;-59
2020/12/08 07:06:33;;;;;;;26.80;14.87;;;5.90;99.90;;;;;;6205728;28;20491;-59
2020/12/08 07:09:36;;;;;;;20.30;13.03;;;5.80;99.90;;;;;;6205673;28;20536;-59
2020/12/08 07:12:45;;;;;;;25.30;14.10;;;5.80;99.90;;;;;;6205818;28;20487;-60
2020/12/08 07:15:48;;;;;;;23.97;14.07;;;5.80;99.90;;;;;;6205996;28;20484;-60
2020/12/08 07:18:51;;;;;;;23.53;13.80;;;5.80;99.90;;;;;;6205013;28;20487;-59
2020/12/08 07:21:58;;;;;;;26.40;16.00;;;5.80;99.90;;;;;;6204976;28;20491;-59
2020/12/08 07:25:06;;;;;;;22.40;14.10;;;5.80;99.90;;;;;;6200876;28;20524;-59
2020/12/08 07:28:09;;;;;;;26.50;16.43;;;5.90;99.90;;;;;;6205393;28;20485;-59
2020/12/08 07:31:19;;;;;;;24.23;14.30;;;5.80;99.90;;;;;;6204913;28;20487;-59
2020/12/08 07:34:21;;;;;;;26.37;16.20;;;5.80;99.90;;;;;;6204755;28;20487;-59
2020/12/08 07:37:24;;;;;;;21.03;14.53;;;5.80;99.90;;;;;;6204645;28;20483;-60
2020/12/08 07:40:32;;;;;;;22.57;14.23;;;5.80;99.90;;;;;;6204322;28;20506;-60
2020/12/08 07:43:36;;;;;;;23.73;13.80;;;5.80;99.90;;;;;;6204507;28;20480;-60
2020/12/08 07:46:47;;;;;;;17.90;13.80;;;5.80;99.90;;;;;;6204842;28;20876;-59
2020/12/08 07:49:50;;;;;;;22.50;13.87;;;5.80;99.90;;;;;;6204381;28;20473;-60
2020/12/08 07:53:05;;;;;;;24.23;14.30;;;5.90;99.90;;;;;;6204072;28;20484;-59
2020/12/08 07:56:07;;;;;;;21.03;14.03;;;6.00;99.90;;;;;;6204344;28;20492;-60
2020/12/08 07:59:11;;;;;;;23.53;15.30;;;6.00;99.90;;;;;;6204528;28;20511;-60
2020/12/08 08:02:13;;;;;;;20.83;12.57;;;6.10;99.90;;;;;;6204105;28;20473;-61
2020/12/08 08:05:15;;;;;;;18.00;12.00;;;6.00;99.90;;;;;;6202871;28;20476;-61
2020/12/08 08:08:17;;;;;;;20.97;12.37;;;6.00;99.90;;;;;;6204060;28;20814;-60
2020/12/08 08:11:20;;;;;;;17.87;13.03;;;6.10;99.90;;;;;;6204214;28;20487;-60
2020/12/08 08:14:23;;;;;;;18.27;14.20;;;6.10;99.90;;;;;;6204541;28;20473;-60
2020/12/08 08:17:38;;;;;;;20.23;13.90;;;6.20;99.90;;;;;;6204658;28;20477;-60
2020/12/08 08:20:41;;;;;;;21.60;14.90;;;6.20;99.90;;;;;;6204010;28;20485;-60
2020/12/08 08:23:44;;;;;;;21.07;15.50;;;6.20;99.90;;;;;;6203801;28;20480;-61
2020/12/08 08:26:46;;;;;;;23.80;15.73;;;6.30;99.90;;;;;;6199737;28;20465;-60
2020/12/08 08:29:50;;;;;;;22.20;15.17;;;6.40;99.90;;;;;;6204018;28;20484;-60
2020/12/08 08:32:52;;;;;;;26.63;15.73;;;6.40;99.90;;;;;;6203602;28;20468;-60
2020/12/08 08:35:55;;;;;;;22.73;13.93;;;6.30;99.90;;;;;;6203449;28;20488;-59
2020/12/08 08:38:57;;;;;;;24.53;15.03;;;6.40;99.90;;;;;;6203457;28;20481;-60
2020/12/08 08:41:59;;;;;;;20.70;14.10;;;6.40;99.90;;;;;;6203078;28;21236;-60
2020/12/08 08:45:03;;;;;;;28.70;16.03;;;6.30;99.90;;;;;;6203131;28;20483;-59
2020/12/08 08:48:06;;;;;;;25.10;15.53;;;6.40;99.90;;;;;;6202963;28;20523;-60
2020/12/08 08:51:08;;;;;;;28.23;14.87;;;6.40;99.90;;;;;;6203034;28;20479;-59
2020/12/08 08:54:11;;;;;;;22.67;14.53;;;6.50;99.90;;;;;;6203231;28;20500;-60
2020/12/08 08:57:13;;;;;;;23.00;14.93;;;6.50;99.90;;;;;;6203064;28;20472;-60
2020/12/08 09:00:16;;;;;;;23.27;15.27;;;6.50;99.90;;;;;;6203105;28;20488;-61
2020/12/08 09:03:18;;;;;;;25.13;14.47;;;6.50;99.90;;;;;;6202520;28;20477;-61
2020/12/08 09:06:24;;;;;;;27.53;15.97;;;6.60;99.90;;;;;;6199995;28;20485;-59
2020/12/08 09:09:26;;;;;;;22.90;14.90;;;6.70;99.90;;;;;;6188624;28;20790;-60
2020/12/08 09:12:28;;;;;;;21.43;13.97;;;6.70;99.90;;;;;;6185527;28;20816;-60
2020/12/08 09:15:31;;;;;;;25.47;15.67;;;6.80;99.90;;;;;;6188243;28;20966;-59
2020/12/08 09:18:34;;;;;;;19.67;13.60;;;6.80;99.90;;;;;;6188125;28;20606;-60
2020/12/08 09:21:36;;;;;;;19.93;14.23;;;6.80;99.90;;;;;;6188888;28;20468;-59
2020/12/08 09:24:39;;;;;;;17.70;12.67;;;6.80;99.90;;;;;;6189887;28;20972;-59
2020/12/08 09:27:42;;;;;;;19.87;12.30;;;6.80;99.90;;;;;;6190518;28;20974;-60
2020/12/08 09:30:45;;;;;;;19.40;13.23;;;6.70;99.90;;;;;;6187080;28;20469;-59
2020/12/08 09:33:51;;;;;;;21.27;11.57;;;6.60;99.90;;;;;;6182183;28;20553;-60
2020/12/08 09:36:57;;;;;;;23.70;16.23;;;6.60;99.90;;;;;;6190284;28;20461;-60
2020/12/08 09:39:59;;;;;;;25.33;15.93;;;6.60;99.90;;;;;;6185997;28;20498;-60
2020/12/08 09:43:01;;;;;;;29.40;18.10;;;6.60;99.90;;;;;;6189997;28;20465;-60
2020/12/08 09:46:04;;;;;;;28.23;19.10;;;6.50;99.90;;;;;;6187248;28;20782;-60
2020/12/08 09:49:07;;;;;;;28.33;16.40;;;6.40;99.90;;;;;;6185446;28;20469;-61
2020/12/08 09:52:09;;;;;;;26.77;17.30;;;6.50;99.90;;;;;;6199057;28;20473;-61
2020/12/08 09:55:14;;;;;;;26.10;16.93;;;6.40;99.90;;;;;;6191068;28;20472;-60
2020/12/08 09:58:16;;;;;;;25.70;18.97;;;6.40;99.90;;;;;;6194423;28;20469;-60
2020/12/08 10:01:26;;;;;;;20.90;13.63;;;6.50;99.90;;;;;;6197530;28;20861;-61
2020/12/08 10:04:28;;;;;;;20.03;13.20;;;6.60;99.90;;;;;;6195749;28;20477;-60
2020/12/08 10:07:31;;;;;;;21.60;12.50;;;6.60;99.90;;;;;;6192726;28;20870;-60
2020/12/08 10:10:33;;;;;;;20.27;11.80;;;6.60;99.90;;;;;;6186930;28;20567;-60
2020/12/08 10:13:35;;;;;;;23.73;11.53;;;6.70;99.90;;;;;;6186943;28;20465;-60
2020/12/08 10:16:39;;;;;;;18.13;11.30;;;6.70;99.90;;;;;;6182444;28;20532;-60
2020/12/08 10:19:42;;;;;;;16.90;11.03;;;6.90;99.90;;;;;;6190740;28;20472;-61
2020/12/08 10:22:45;;;;;;;18.43;12.70;;;7.00;99.90;;;;;;6196015;28;20811;-61
2020/12/08 10:25:48;;;;;;;19.87;12.23;;;7.20;99.90;;;;;;6201407;28;20829;-61
2020/12/08 10:28:50;;;;;;;18.07;11.40;;;7.20;99.90;;;;;;6200587;28;20807;-61
2020/12/08 10:31:54;;;;;;;17.97;11.23;;;7.20;99.90;;;;;;6189620;28;20505;-61
2020/12/08 10:34:57;;;;;;;19.17;10.20;;;7.20;99.90;;;;;;6191180;28;20465;-60
2020/12/08 10:37:59;;;;;;;15.90;10.67;;;7.20;99.90;;;;;;6201047;28;20507;-61
2020/12/08 10:41:01;;;;;;;14.20;10.33;;;7.30;99.90;;;;;;6200784;28;20477;-61
2020/12/08 10:44:06;;;;;;;17.73;11.07;;;7.30;99.90;;;;;;6200836;28;20496;-61
2020/12/08 10:47:09;;;;;;;16.17;9.90;;;7.40;99.90;;;;;;6200209;28;20495;-61
2020/12/08 10:50:12;;;;;;;16.93;10.57;;;7.40;99.90;;;;;;6200735;28;20543;-61
2020/12/08 10:53:20;;;;;;;16.03;10.50;;;7.40;99.90;;;;;;6201369;28;20481;-62
2020/12/08 10:56:23;;;;;;;15.37;10.90;;;7.40;99.90;;;;;;6200505;28;20477;-61
2020/12/08 10:59:27;;;;;;;17.73;12.13;;;7.60;99.90;;;;;;6201806;28;20456;-61
2020/12/08 11:02:37;;;;;;;13.57;10.53;;;7.80;99.90;;;;;;6201062;28;20504;-61
2020/12/08 11:05:40;;;;;;;16.73;9.43;;;7.90;99.90;;;;;;6199693;28;20476;-60
2020/12/08 11:08:42;;;;;;;15.93;9.70;;;7.90;99.90;;;;;;6194179;28;20955;-60
2020/12/08 11:11:45;;;;;;;13.70;9.70;;;7.90;99.90;;;;;;6199609;28;20461;-60
2020/12/08 11:14:48;;;;;;;12.90;9.70;;;7.90;99.90;;;;;;6199322;28;20476;-60
2020/12/08 11:17:51;;;;;;;13.47;9.30;;;7.80;99.90;;;;;;6190104;28;20511;-61
2020/12/08 11:20:54;;;;;;;10.60;8.80;;;7.60;99.90;;;;;;6185790;28;20473;-60
2020/12/08 11:23:57;;;;;;;14.00;10.03;;;7.40;99.90;;;;;;6193047;28;20470;-61
2020/12/08 11:26:59;;;;;;;15.03;10.17;;;7.30;99.90;;;;;;6187175;28;20559;-60
2020/12/08 11:30:03;;;;;;;13.33;10.20;;;7.20;99.90;;;;;;6183327;28;20476;-61
2020/12/08 11:33:06;;;;;;;14.30;10.83;;;7.10;99.90;;;;;;6184050;28;20478;-60
2020/12/08 11:36:09;;;;;;;12.03;9.50;;;7.00;99.90;;;;;;6176162;28;20470;-60
2020/12/08 11:39:12;;;;;;;15.40;10.37;;;7.10;99.90;;;;;;6183252;28;20469;-60
2020/12/08 11:42:16;;;;;;;16.27;9.83;;;6.90;99.90;;;;;;6190883;28;20513;-61
2020/12/08 11:45:18;;;;;;;18.20;11.77;;;7.00;99.90;;;;;;6190598;28;20484;-60
2020/12/08 11:48:23;;;;;;;17.90;11.60;;;7.00;99.90;;;;;;6191511;28;20802;-60
2020/12/08 11:51:26;;;;;;;13.13;9.83;;;6.90;99.90;;;;;;6187076;28;20531;-59
2020/12/08 11:54:29;;;;;;;19.23;12.20;;;7.00;99.90;;;;;;6191867;28;20476;-61
2020/12/08 11:57:31;;;;;;;14.40;11.17;;;6.90;99.90;;;;;;6191828;28;21909;-59
2020/12/08 12:00:34;;;;;;;19.00;12.40;;;6.90;99.90;;;;;;6189895;28;20480;-61
2020/12/08 12:03:37;;;;;;;20.87;12.77;;;6.80;99.90;;;;;;6192345;28;20542;-59
2020/12/08 12:06:40;;;;;;;17.87;12.43;;;6.70;99.90;;;;;;6190596;28;20840;-59
2020/12/08 12:09:42;;;;;;;18.53;11.87;;;6.70;99.90;;;;;;6190034;28;20927;-57
2020/12/08 12:12:44;;;;;;;18.33;13.13;;;6.80;99.90;;;;;;6183902;28;20953;-59
2020/12/08 12:15:47;;;;;;;18.80;12.47;;;6.80;99.90;;;;;;6162219;28;20986;-59
2020/12/08 12:18:50;;;;;;;18.20;11.53;;;6.80;99.90;;;;;;6179355;28;20474;-60
2020/12/08 12:21:52;;;;;;;17.57;12.27;;;6.80;99.90;;;;;;6164446;28;20569;-63
2020/12/08 12:24:55;;;;;;;20.63;12.77;;;6.80;99.90;;;;;;6155311;29;20937;-63
2020/12/08 12:27:58;;;;;;;14.80;10.20;;;6.70;99.90;;;;;;6156315;29;20808;-64
2020/12/08 12:31:00;;;;;;;17.23;10.80;;;6.60;99.90;;;;;;6174846;28;20482;-63
2020/12/08 12:34:05;;;;;;;18.40;14.10;;;6.50;99.90;;;;;;6179321;28;20474;-64
2020/12/08 12:37:08;;;;;;;21.30;13.70;;;6.50;99.90;;;;;;6178892;28;21020;-64
2020/12/08 12:40:10;;;;;;;16.00;12.33;;;6.40;99.90;;;;;;6179102;28;20513;-65
2020/12/08 12:43:12;;;;;;;17.67;12.10;;;6.40;99.90;;;;;;6178504;28;20544;-64
2020/12/08 12:46:15;;;;;;;21.27;14.77;;;6.40;99.90;;;;;;6173311;28;20522;-62
2020/12/08 12:49:18;;;;;;;18.43;12.67;;;6.20;99.90;;;;;;6154881;29;20813;-63
2020/12/08 12:52:20;;;;;;;21.90;13.90;;;6.10;99.90;;;;;;6154103;28;20562;-64
2020/12/08 12:55:22;;;;;;;19.73;14.23;;;6.10;99.90;;;;;;6154977;29;20482;-63
2020/12/08 12:58:25;;;;;;;15.83;12.30;;;6.10;99.90;;;;;;6155120;29;20482;-60
2020/12/08 13:01:27;;;;;;;21.27;14.00;;;6.20;99.90;;;;;;6153938;29;20485;-66
2020/12/08 13:04:30;;;;;;;21.63;14.67;;;6.30;99.90;;;;;;6154278;28;20471;-60
2020/12/08 13:07:32;;;;;;;22.60;17.27;;;6.30;99.90;;;;;;6154721;29;20482;-61
2020/12/08 13:10:35;;;;;;;23.00;15.47;;;6.30;99.90;;;;;;6154216;29;20486;-61
2020/12/08 13:13:37;;;;;;;13.07;9.70;;;6.20;99.90;;;;;;6163906;28;20863;-60
2020/12/08 13:16:40;;;;;;;15.70;11.93;;;6.20;99.90;;;;;;6175403;28;20500;-59
2020/12/08 13:19:43;;;;;;;14.80;12.60;;;6.10;99.90;;;;;;6175668;28;20470;-65
2020/12/08 13:22:45;;;;;;;16.27;10.17;;;6.10;99.90;;;;;;6174805;28;20477;-65
2020/12/08 13:25:47;;;;;;;13.97;10.60;;;6.00;99.90;;;;;;6199996;28;20485;-66
2020/12/08 13:28:49;;;;;;;16.10;10.53;;;6.10;99.90;;;;;;6200338;28;20469;-61
2020/12/08 13:31:52;;;;;;;17.53;11.80;;;5.90;99.90;;;;;;6200026;28;20473;-62
2020/12/08 13:34:55;;;;;;;14.63;10.67;;;5.70;99.90;;;;;;6199948;28;20805;-61
2020/12/08 13:37:57;;;;;;;15.30;10.03;;;5.80;99.90;;;;;;6177706;28;20528;-63
2020/12/08 13:40:59;;;;;;;11.00;8.90;;;5.90;99.90;;;;;;6175371;28;20488;-63
2020/12/08 13:44:02;;;;;;;11.90;9.90;;;6.00;99.90;;;;;;6175801;28;20999;-61
2020/12/08 13:47:04;;;;;;;10.40;7.50;;;6.00;99.90;;;;;;6175490;28;20474;-64
2020/12/08 13:50:08;;;;;;;10.37;7.27;;;6.00;99.90;;;;;;6175065;28;20875;-65
2020/12/08 13:53:12;;;;;;;9.33;7.23;;;5.90;99.90;;;;;;6175436;28;21241;-62
2020/12/08 13:56:15;;;;;;;9.40;6.73;;;5.90;99.90;;;;;;6175422;28;20496;-58
2020/12/08 13:59:17;;;;;;;7.73;6.70;;;5.80;99.90;;;;;;6175196;28;20485;-62
2020/12/08 14:02:20;;;;;;;7.20;6.10;;;5.90;99.90;;;;;;6173941;28;20800;-61
2020/12/08 14:05:23;;;;;;;8.20;6.53;;;5.90;99.90;;;;;;6175210;28;20492;-63
2020/12/08 14:08:25;;;;;;;7.47;6.00;;;6.00;99.90;;;;;;6175268;28;21025;-60
2020/12/08 14:11:28;;;;;;;7.43;6.70;;;6.00;99.90;;;;;;6192875;28;20465;-60
2020/12/08 14:14:31;;;;;;;7.77;6.17;;;6.00;99.90;;;;;;6172338;28;20447;-60
2020/12/08 14:17:33;;;;;;;9.33;6.57;;;6.10;99.90;;;;;;6169639;28;20933;-60
2020/12/08 14:20:36;;;;;;;7.50;6.80;;;6.20;99.90;;;;;;6181425;28;20476;-59
2020/12/08 14:23:40;;;;;;;5.23;4.73;;;6.00;99.90;;;;;;6175738;28;20521;-60
2020/12/08 14:26:42;;;;;;;7.17;6.07;;;6.00;99.90;;;;;;6188680;28;20486;-61
2020/12/08 14:29:44;;;;;;;7.40;6.00;;;6.00;99.90;;;;;;6191096;28;20492;-60
2020/12/08 14:32:46;;;;;;;5.50;5.00;;;6.00;99.90;;;;;;6189081;28;20457;-60
2020/12/08 14:35:49;;;;;;;6.33;5.50;;;6.10;99.90;;;;;;6188555;28;20465;-60
2020/12/08 14:38:52;;;;;;;7.03;5.10;;;6.10;99.90;;;;;;6182362;28;20469;-60
2020/12/08 14:41:54;;;;;;;7.07;5.77;;;6.10;99.90;;;;;;6184618;28;20558;-60
2020/12/08 14:44:59;;;;;;;6.47;5.87;;;6.10;99.90;;;;;;6188958;28;20505;-60
2020/12/08 14:48:01;;;;;;;6.53;5.33;;;6.10;99.90;;;;;;6191578;28;20778;-60
2020/12/08 14:51:04;;;;;;;6.57;5.57;;;6.00;99.90;;;;;;6178140;28;20474;-60
2020/12/08 14:54:06;;;;;;;6.77;5.33;;;5.80;99.90;;;;;;6188583;28;20466;-60
2020/12/08 14:57:08;;;;;;;6.43;5.77;;;5.70;99.90;;;;;;6184462;28;20476;-60
2020/12/08 15:00:10;;;;;;;6.47;5.60;;;5.70;99.90;;;;;;6192329;28;20476;-60
2020/12/08 15:03:13;;;;;;;6.27;5.37;;;5.70;99.90;;;;;;6186691;28;20465;-60
2020/12/08 15:06:16;;;;;;;7.43;6.30;;;5.60;99.90;;;;;;6184965;28;20469;-60
2020/12/08 15:09:19;;;;;;;5.90;5.40;;;5.60;99.90;;;;;;6186683;28;20591;-60
2020/12/08 15:12:21;;;;;;;4.30;3.90;;;5.70;99.90;;;;;;6184919;28;20561;-61
2020/12/08 15:15:23;;;;;;;8.30;5.20;;;5.70;99.90;;;;;;6186852;28;20456;-61
2020/12/08 15:18:26;;;;;;;5.57;4.93;;;5.80;99.90;;;;;;6192636;28;20484;-61
2020/12/08 15:21:29;;;;;;;5.47;4.93;;;5.70;99.90;;;;;;6186157;28;20469;-61
2020/12/08 15:24:31;;;;;;;5.07;4.57;;;5.70;99.90;;;;;;6185969;28;20477;-60
2020/12/08 15:27:34;;;;;;;5.37;4.87;;;5.70;99.90;;;;;;6195547;28;20499;-60
2020/12/08 15:30:44;;;;;;;4.70;4.33;;;5.70;99.90;;;;;;6194638;28;20474;-60
2020/12/08 15:33:46;;;;;;;4.23;3.83;;;5.70;99.90;;;;;;6190851;28;20473;-60
2020/12/08 15:36:51;;;;;;;5.30;4.80;;;5.80;99.90;;;;;;6188391;28;20512;-60
2020/12/08 15:39:54;;;;;;;5.07;4.67;;;5.80;99.90;;;;;;6201292;28;20487;-60
2020/12/08 15:42:57;;;;;;;3.93;3.63;;;5.80;99.90;;;;;;6195428;28;20531;-60
2020/12/08 15:45:59;;;;;;;4.73;4.10;;;5.80;99.90;;;;;;6189785;28;20491;-61